Kaltag, AK

7:56 AM AKST on February 28, 2015 (GMT -0900)
Kaltag | Change Station
CLOSE
Current Station
Airport
Location: Kaltag,
Elevation: 200 ft
Nearby Weather Stations
Active Advisory: Winter Weather Advisory Active Notice: Record Report

Elev 200 ft 64.32 °N, 158.74 °W | Updated 3 minutes ago

Light Freezing Fog
Freezing Fog
24 °F
Feels Like 20 °F
N
4
Wind Variable Wind from SW

Today
High -- | Low -- °F
--% Chance of Precip.
Yesterday
High -- | Low -- °F
Precip. -- in
8:46 AM 6:49 PM
Waxing Gibbous, 78% visible
Pressure 30.04 in
Visibility 0.5 miles
Clouds
Windchill 20 °F
Dew Point 21 °F
Humidity 88%
Rainfall 0.00 in
Snow Depth Not available.
UV Not available.
Pollen Not available.
Air Quality Not available.
Flu Activity Not available.
METAR PAKV 281653Z AUTO 23003KT 1/2SM FZFG VV008 M04/M06 A3002 RMK AO1 SLP170 T10441061 FZRANO TSNO

More Conditions Fewer Conditions

Pressure 30.04 in
Visibility 0.5 miles
Clouds
Windchill 20 °F
Dew Point 21 °F
Humidity 88%
Rainfall 0.00 in
Snow Depth Not available.
UV Not available.
Pollen Not available.
Air Quality Not available.
Flu Activity Not available.
METAR PAKV 281653Z AUTO 23003KT 1/2SM FZFG VV008 M04/M06 A3002 RMK AO1 SLP170 T10441061 FZRANO TSNO

More Conditions Fewer Conditions

10-Day Weather Forecast

Almanac

Astronomy

Feb. 28, 2015 Rise Set
Actual Time
Civil Twilight
Nautical Twilight
Astronomical Twilight
Moon
Length of Visible Light
Length of Day
Tomorrow will be .
, % of the Moon is Illuminated

Today's Extremes

State Highs State Lows

Community

WunderPhotos

Upload Photos

1,801,081 photos uploaded!

WunderBlogs® & News

Nearby

Air Quality

  Air Quality AQ Index Pollutant
Not available.

Snow Depth

Station Depth Elevation

Earthquake Activity

City Distance Mag. Time & Date
Minimum magnitude displayed is 2.5.

Coastal Water Temperatures

Place Temperature

Nearby Weather Stations

Winter Weather Advisory
Statement as of 6:35 AM AKST on February 28, 2015

... Winter Weather Advisory remains in effect until 3 PM akst this
afternoon...

A Winter Weather Advisory for snow and blowing snow remains in
effect until 3 PM akst this afternoon.

* Blowing snow... reducing visibility to 1/2 mile or less.

* Snow... with up to 4 inches of accumulation.

* Winds... west gusting to 30 mph.

* Timing... snow and blowing snow will develop this morning. The
worst conditions will be around noon as winds increase.
Conditions will improve by late afternoon as winds and snow
diminish.

* Impacts... visibility will be greatly reduced and snow will
accumulate into drifts. Whiteout conditions may occur. Travel
and outdoor activities will be difficult.

Precautionary/preparedness actions...

A Winter Weather Advisory means that one or more winter weather
hazards are expected to cause travel difficulties.